Time;durP1;ratioP1;P1;durP2;ratioP2;P2;SDS_P1;SDS_P2;PMS_P1;PMS_P2;Temp;Humidity;BMP_temperature;BMP_pressure;BME280_temperature;BME280_humidity;BME280_pressure;Samples;Min_cycle;Max_cycle;Signal;HPM_P1;HPM_P2
2021/04/28 00:01:03;;;;;;;8.93;5.38;;;;;;;5.69;54.27;98586.81;5111523;28;20561;-71
2021/04/28 00:03:29;;;;;;;9.88;5.53;;;;;;;5.66;54.38;98573.88;5110407;28;20059;-72
2021/04/28 00:05:54;;;;;;;10.43;5.18;;;;;;;5.64;54.41;98573.13;5078811;28;20119;-73
2021/04/28 00:08:20;;;;;;;12.82;5.00;;;;;;;5.58;54.79;98565.56;5064288;28;20039;-72
2021/04/28 00:10:50;;;;;;;8.00;4.70;;;;;;;5.56;54.35;98568.25;5066620;28;20020;-73
2021/04/28 00:13:17;;;;;;;8.45;4.53;;;;;;;5.52;55.38;98564.09;5079318;28;20027;-73
2021/04/28 00:15:46;;;;;;;8.95;4.35;;;;;;;5.48;55.65;98561.69;5106944;28;20055;-73
2021/04/28 00:18:13;;;;;;;5.63;3.83;;;;;;;5.43;56.21;98558.47;5110102;28;20036;-72
2021/04/28 00:20:40;;;;;;;10.30;4.80;;;;;;;5.36;56.13;98557.91;5109427;28;20028;-71
2021/04/28 00:23:06;;;;;;;9.73;5.00;;;;;;;5.36;56.50;98560.50;5109878;28;20514;-72
2021/04/28 00:25:33;;;;;;;9.15;5.20;;;;;;;5.28;56.37;98550.44;5109068;28;20061;-72
2021/04/28 00:27:58;;;;;;;12.05;5.47;;;;;;;5.24;56.45;98554.13;5110037;28;20487;-72
2021/04/28 00:30:25;;;;;;;8.75;4.80;;;;;;;5.22;56.19;98552.47;5109949;28;20034;-72
2021/04/28 00:32:50;;;;;;;8.32;4.97;;;;;;;5.19;56.74;98544.78;5109800;28;20038;-72
2021/04/28 00:35:17;;;;;;;8.20;4.95;;;;;;;5.15;56.83;98544.94;5109630;28;20035;-72
2021/04/28 00:37:44;;;;;;;8.48;4.35;;;;;;;5.15;57.18;98544.94;5109549;28;20114;-72
2021/04/28 00:40:24;;;;;;;7.38;4.50;;;;;;;5.08;57.54;98547.91;5109615;28;20490;-72
2021/04/28 00:42:51;;;;;;;6.88;5.00;;;;;;;5.04;56.89;98541.13;5109651;28;20040;-73
2021/04/28 00:45:18;;;;;;;8.27;4.80;;;;;;;5.03;57.20;98539.44;5109773;28;20395;-72
2021/04/28 00:47:44;;;;;;;6.10;4.32;;;;;;;4.99;57.33;98536.13;5109543;28;20487;-73
2021/04/28 00:50:12;;;;;;;9.63;5.13;;;;;;;4.95;57.30;98535.44;5091490;28;20042;-73
2021/04/28 00:52:38;;;;;;;8.27;4.88;;;;;;;4.93;57.06;98539.03;5110235;28;20102;-71
2021/04/28 00:55:05;;;;;;;8.05;4.57;;;;;;;4.89;56.79;98533.09;5091934;28;20522;-72
2021/04/28 00:57:30;;;;;;;10.23;6.05;;;;;;;4.89;56.51;98530.47;5113963;28;20444;-73
2021/04/28 00:59:56;;;;;;;8.93;5.10;;;;;;;4.88;57.26;98525.34;5115053;28;20032;-73
2021/04/28 01:02:21;;;;;;;8.20;4.65;;;;;;;4.79;57.94;98513.53;5095902;28;20036;-72
2021/04/28 01:04:48;;;;;;;8.98;5.35;;;;;;;4.72;58.14;98522.56;5098038;28;20134;-72
2021/04/28 01:07:15;;;;;;;9.23;4.80;;;;;;;4.67;58.11;98514.09;5096371;28;20036;-72
2021/04/28 01:09:41;;;;;;;7.20;4.97;;;;;;;4.64;58.27;98514.25;5113858;28;20518;-73
2021/04/28 01:12:10;;;;;;;8.80;5.32;;;;;;;4.57;58.42;98515.44;5113756;28;20039;-72
2021/04/28 01:14:36;;;;;;;6.95;4.47;;;;;;;4.54;58.58;98507.75;5113795;28;20027;-72
2021/04/28 01:17:03;;;;;;;9.85;4.45;;;;;;;4.51;58.50;98508.75;5095322;28;20069;-72
2021/04/28 01:19:29;;;;;;;9.52;5.15;;;;;;;4.55;58.22;98509.44;5113017;28;20483;-72
2021/04/28 01:21:55;;;;;;;7.97;4.35;;;;;;;4.56;57.82;98504.16;5094514;28;20177;-72
2021/04/28 01:24:21;;;;;;;10.88;4.32;;;;;;;4.56;57.91;98498.94;5113990;28;20053;-72
2021/04/28 01:26:52;;;;;;;9.70;5.18;;;;;;;4.51;58.32;98493.09;5112719;28;20439;-72
2021/04/28 01:29:22;;;;;;;11.82;6.40;;;;;;;4.49;57.81;98500.13;5095073;28;20134;-72
2021/04/28 01:31:49;;;;;;;13.45;5.65;;;;;;;4.42;58.16;98496.09;5113587;28;20042;-72
2021/04/28 01:34:15;;;;;;;14.10;6.20;;;;;;;4.40;58.21;98496.16;5112886;28;20038;-72
2021/04/28 01:36:42;;;;;;;9.85;4.00;;;;;;;4.35;58.57;98498.13;5094601;28;20039;-71
2021/04/28 01:39:10;;;;;;;7.95;4.57;;;;;;;4.31;57.94;98499.22;5094799;28;20123;-72
2021/04/28 01:41:38;;;;;;;13.80;4.70;;;;;;;4.28;58.54;98491.50;5092415;28;20403;-71
2021/04/28 01:44:05;;;;;;;11.02;5.05;;;;;;;4.27;58.93;98495.03;5092510;28;20040;-71
2021/04/28 01:46:30;;;;;;;7.57;5.18;;;;;;;4.24;58.63;98492.56;5074100;28;20297;-72
2021/04/28 01:48:57;;;;;;;8.68;5.32;;;;;;;4.19;59.05;98491.94;5109851;28;20505;-72
2021/04/28 01:51:22;;;;;;;7.57;5.45;;;;;;;4.15;58.93;98487.75;5094650;28;20437;-72
2021/04/28 01:53:48;;;;;;;7.55;4.25;;;;;;;4.14;59.34;98488.69;5111409;28;20047;-72
2021/04/28 01:56:14;;;;;;;6.25;4.32;;;;;;;4.11;59.38;98487.06;5104381;28;20062;-72
2021/04/28 01:58:41;;;;;;;13.57;5.03;;;;;;;4.15;59.43;98485.97;5113043;28;20059;-72
2021/04/28 02:01:08;;;;;;;7.28;4.18;;;;;;;4.13;59.60;98489.56;5113069;28;20123;-71
2021/04/28 02:03:33;;;;;;;6.63;4.30;;;;;;;4.11;59.80;98487.06;5113082;28;20114;-72
2021/04/28 02:06:00;;;;;;;7.97;4.43;;;;;;;4.07;59.39;98477.66;5114492;28;20039;-73
2021/04/28 02:08:26;;;;;;;8.35;5.00;;;;;;;4.04;59.50;98478.63;5114847;28;20084;-71
2021/04/28 02:10:51;;;;;;;7.10;4.40;;;;;;;4.00;59.17;98484.88;5116730;28;20402;-72
2021/04/28 02:13:19;;;;;;;7.40;4.95;;;;;;;4.00;58.96;98481.44;5098195;28;20035;-71
2021/04/28 02:15:45;;;;;;;7.18;5.00;;;;;;;3.98;59.07;98483.25;5111736;28;20110;-71
2021/04/28 02:18:13;;;;;;;8.82;5.55;;;;;;;3.94;59.14;98477.34;5093724;28;20490;-73
2021/04/28 02:20:39;;;;;;;11.75;6.78;;;;;;;3.91;59.15;98480.06;5111645;28;20395;-72
2021/04/28 02:23:05;;;;;;;10.27;5.53;;;;;;;3.90;59.70;98475.78;5091061;28;20047;-72
2021/04/28 02:25:32;;;;;;;7.75;4.30;;;;;;;3.90;59.69;98475.78;5101322;28;20043;-72
2021/04/28 02:27:58;;;;;;;8.85;5.82;;;;;;;3.86;59.63;98477.69;5110840;28;20123;-72
2021/04/28 02:30:27;;;;;;;15.82;4.97;;;;;;;3.84;59.76;98469.06;5112601;28;20055;-72
2021/04/28 02:32:53;;;;;;;13.30;5.82;;;;;;;3.82;59.86;98475.28;5112782;28;20043;-72
2021/04/28 02:35:22;;;;;;;8.40;4.93;;;;;;;3.81;59.71;98473.56;5112461;28;20036;-72
2021/04/28 02:37:52;;;;;;;10.05;6.35;;;;;;;3.78;59.82;98468.47;5094022;28;20063;-72
2021/04/28 02:40:18;;;;;;;7.68;5.05;;;;;;;3.82;60.06;98464.84;5111798;28;20042;-72
2021/04/28 02:42:45;;;;;;;7.40;4.93;;;;;;;3.76;60.37;98465.09;5111553;28;20547;-73
2021/04/28 02:45:14;;;;;;;7.05;4.57;;;;;;;3.73;60.61;98467.84;5111427;28;20092;-73
2021/04/28 02:47:40;;;;;;;8.35;4.43;;;;;;;3.72;60.53;98463.56;5111574;28;20032;-72
2021/04/28 02:50:08;;;;;;;11.18;5.55;;;;;;;3.63;60.14;98460.41;5111056;28;20036;-72
2021/04/28 02:52:34;;;;;;;12.23;5.15;;;;;;;3.61;60.66;98464.81;5111429;28;20039;-71
2021/04/28 02:55:00;;;;;;;11.98;5.55;;;;;;;3.62;60.16;98470.91;5111390;28;20036;-71
2021/04/28 02:57:25;;;;;;;6.57;4.35;;;;;;;3.60;59.85;98462.31;5111540;28;20118;-72
2021/04/28 02:59:51;;;;;;;7.82;5.13;;;;;;;3.62;60.05;98465.69;5111652;28;20027;-72
2021/04/28 03:02:17;;;;;;;9.13;5.45;;;;;;;3.63;59.93;98463.00;5111450;28;20032;-71
2021/04/28 03:04:44;;;;;;;8.65;5.18;;;;;;;3.65;59.86;98461.19;5111087;28;20039;-71
2021/04/28 03:07:14;;;;;;;9.40;4.97;;;;;;;3.69;60.36;98466.25;5111144;28;20039;-72
2021/04/28 03:09:41;;;;;;;6.07;4.70;;;;;;;3.62;60.72;98455.28;5111472;28;20027;-72
2021/04/28 03:12:08;;;;;;;9.85;5.13;;;;;;;3.53;61.32;98456.50;5111056;28;20394;-72
2021/04/28 03:14:33;;;;;;;11.32;5.93;;;;;;;3.49;61.30;98459.28;5110827;28;20490;-72
2021/04/28 03:16:59;;;;;;;13.27;6.25;;;;;;;3.50;61.38;98459.22;5110689;28;20032;-72
2021/04/28 03:19:25;;;;;;;8.70;5.30;;;;;;;3.47;61.68;98453.28;5109831;28;20032;-73
2021/04/28 03:21:51;;;;;;;13.88;6.00;;;;;;;3.46;61.91;98457.66;5093156;28;20050;-72
2021/04/28 03:24:18;;;;;;;10.10;5.07;;;;;;;3.47;61.39;98448.94;5110072;28;20039;-73
2021/04/28 03:26:45;;;;;;;8.40;5.50;;;;;;;3.48;61.40;98450.63;5110038;28;20114;-72
2021/04/28 03:29:11;;;;;;;8.73;4.35;;;;;;;3.45;61.64;98450.78;5092047;28;20097;-72
2021/04/28 03:31:36;;;;;;;7.13;4.85;;;;;;;3.41;61.80;98447.44;5110591;28;20035;-72
2021/04/28 03:34:02;;;;;;;7.95;4.38;;;;;;;3.45;61.60;98445.56;5092585;28;20494;-72
2021/04/28 03:36:27;;;;;;;10.32;4.90;;;;;;;3.43;61.45;98443.00;5091786;28;20532;-71
2021/04/28 03:38:53;;;;;;;11.85;4.85;;;;;;;3.41;61.72;98449.19;5092906;28;20372;-72
2021/04/28 03:41:19;;;;;;;12.75;4.70;;;;;;;3.39;61.58;98451.00;5110254;28;20505;-72
2021/04/28 03:43:44;;;;;;;9.05;6.07;;;;;;;3.36;61.84;98444.16;5092147;28;20069;-72
2021/04/28 03:46:10;;;;;;;14.23;6.82;;;;;;;3.33;61.73;98444.31;5110354;28;20059;-71
2021/04/28 03:48:37;;;;;;;8.13;5.32;;;;;;;3.34;61.40;98445.16;5092072;28;20114;-72
2021/04/28 03:51:03;;;;;;;11.02;5.38;;;;;;;3.33;61.45;98448.66;5110128;28;20398;-72
2021/04/28 03:53:28;;;;;;;7.82;4.82;;;;;;;3.31;61.48;98440.91;5109152;28;20043;-72
2021/04/28 03:55:53;;;;;;;9.50;4.80;;;;;;;3.29;61.60;98449.69;5092336;28;20040;-71
2021/04/28 03:58:19;;;;;;;10.20;5.07;;;;;;;3.32;61.61;98441.75;5110200;28;20036;-71
2021/04/28 04:00:44;;;;;;;8.85;5.30;;;;;;;3.31;61.68;98445.28;5110697;28;20394;-72
2021/04/28 04:03:10;;;;;;;11.80;4.57;;;;;;;3.30;61.48;98435.75;5110733;28;20191;-72
2021/04/28 04:05:35;;;;;;;6.57;4.30;;;;;;;3.32;61.56;98440.00;5098315;28;20705;-72
2021/04/28 04:08:00;;;;;;;10.88;5.53;;;;;;;3.33;61.56;98446.06;5104887;28;20035;-73
2021/04/28 04:10:26;;;;;;;12.55;5.47;;;;;;;3.31;61.42;98445.28;5121499;28;20036;-72
2021/04/28 04:12:51;;;;;;;7.00;5.05;;;;;;;3.31;61.43;98446.13;5115933;28;20034;-71
2021/04/28 04:15:17;;;;;;;8.00;4.90;;;;;;;3.35;60.54;98450.31;5101485;28;20035;-71
2021/04/28 04:17:42;;;;;;;8.10;5.78;;;;;;;3.36;60.89;98448.53;5108183;28;20038;-71
2021/04/28 04:20:08;;;;;;;11.65;5.35;;;;;;;3.33;60.81;98448.66;5093174;28;20491;-71
2021/04/28 04:22:33;;;;;;;10.95;4.97;;;;;;;3.38;60.53;98452.78;5111339;28;20038;-71
2021/04/28 04:24:59;;;;;;;7.47;5.00;;;;;;;3.38;60.58;98457.16;5112027;28;20036;-71
2021/04/28 04:27:24;;;;;;;7.65;4.75;;;;;;;3.38;60.98;98457.16;5092489;28;20526;-70
2021/04/28 04:29:49;;;;;;;13.85;5.65;;;;;;;3.36;61.09;98459.81;5109734;28;20502;-72
2021/04/28 04:32:15;;;;;;;7.75;5.07;;;;;;;3.35;61.30;98457.28;5091532;28;20081;-72
2021/04/28 04:34:40;;;;;;;9.55;4.80;;;;;;;3.38;61.26;98451.94;5109765;28;20027;-72
2021/04/28 04:37:05;;;;;;;8.70;5.07;;;;;;;3.33;61.55;98452.13;5109449;28;20118;-70
2021/04/28 04:39:31;;;;;;;6.35;4.65;;;;;;;3.34;61.78;98455.56;5108942;28;20040;-72
2021/04/28 04:41:57;;;;;;;6.30;3.75;;;;;;;3.38;61.54;98452.78;5089142;28;20067;-72
2021/04/28 04:44:23;;;;;;;10.52;4.35;;;;;;;3.43;61.66;98457.78;5089515;28;20040;-72
2021/04/28 04:46:48;;;;;;;9.25;4.68;;;;;;;3.49;61.40;98454.91;5088700;28;20090;-72
2021/04/28 04:49:14;;;;;;;11.73;4.50;;;;;;;3.50;61.27;98450.56;5089458;28;20495;-72
2021/04/28 04:51:39;;;;;;;13.43;4.50;;;;;;;3.47;61.93;98450.69;5089694;28;20109;-72
2021/04/28 04:54:05;;;;;;;5.75;4.57;;;;;;;3.53;61.49;98447.84;5089442;28;20043;-71
2021/04/28 04:56:31;;;;;;;12.00;6.00;;;;;;;3.58;61.41;98445.88;5090483;28;20046;-71
2021/04/28 04:58:56;;;;;;;10.63;5.55;;;;;;;3.65;61.34;98448.16;5091693;28;20113;-72
2021/04/28 05:01:22;;;;;;;9.55;5.55;;;;;;;3.72;61.31;98447.91;5093284;28;20118;-72
2021/04/28 05:03:47;;;;;;;13.00;6.25;;;;;;;3.78;60.91;98445.88;5074218;28;20032;-72
2021/04/28 05:06:12;;;;;;;10.48;5.00;;;;;;;3.94;60.90;98446.06;5092472;28;20040;-72
2021/04/28 05:08:38;;;;;;;9.48;5.28;;;;;;;4.12;60.28;98446.16;5090385;28;20032;-74
2021/04/28 05:11:03;;;;;;;12.32;6.55;;;;;;;4.36;59.62;98452.03;5071919;28;20040;-73
2021/04/28 05:13:28;;;;;;;9.25;4.53;;;;;;;4.54;59.11;98451.19;5089865;28;20032;-74
2021/04/28 05:15:54;;;;;;;6.75;5.05;;;;;;;4.71;58.64;98448.63;5090257;28;20100;-72
2021/04/28 05:18:19;;;;;;;10.27;5.13;;;;;;;4.92;58.50;98448.53;5089411;28;20032;-73
2021/04/28 05:20:45;;;;;;;6.45;4.70;;;;;;;5.11;57.70;98454.56;5089469;28;20044;-72
2021/04/28 05:23:10;;;;;;;7.63;5.07;;;;;;;5.28;57.25;98455.53;5071581;28;20491;-73
2021/04/28 05:25:35;;;;;;;14.90;5.88;;;;;;;5.47;56.32;98455.47;5089097;28;20032;-71
2021/04/28 05:28:01;;;;;;;11.93;5.95;;;;;;;5.61;56.08;98463.44;5090332;28;20029;-73
2021/04/28 05:30:27;;;;;;;9.80;5.30;;;;;;;5.77;55.40;98459.13;5072038;28;20036;-73
2021/04/28 05:32:53;;;;;;;14.45;5.78;;;;;;;6.05;55.04;98457.72;5071336;28;20124;-72
2021/04/28 05:35:18;;;;;;;13.88;5.70;;;;;;;6.26;54.85;98447.91;5088857;28;20440;-71
2021/04/28 05:37:44;;;;;;;9.35;5.07;;;;;;;6.39;53.40;98458.56;5089585;28;20028;-71
2021/04/28 05:40:11;;;;;;;8.60;5.28;;;;;;;6.56;53.77;98449.81;5089245;28;20088;-71
2021/04/28 05:42:37;;;;;;;11.38;5.70;;;;;;;6.75;53.38;98454.91;5089641;28;20514;-73
2021/04/28 05:45:08;;;;;;;9.60;5.22;;;;;;;6.88;53.18;98455.91;5092576;28;20040;-73
2021/04/28 05:47:34;;;;;;;7.78;4.57;;;;;;;7.12;52.02;98455.47;5093062;28;20028;-72
2021/04/28 05:49:59;;;;;;;9.27;5.53;;;;;;;7.34;51.67;98452.47;5092579;28;20114;-75
2021/04/28 05:52:25;;;;;;;12.52;6.07;;;;;;;7.44;51.25;98451.00;5093429;28;20039;-72
2021/04/28 05:54:50;;;;;;;10.02;5.55;;;;;;;7.47;51.30;98453.44;5075271;28;20812;-73
2021/04/28 05:57:17;;;;;;;15.07;6.38;;;;;;;7.56;51.23;98454.69;5094437;28;20064;-73
2021/04/28 05:59:43;;;;;;;21.60;6.82;;;;;;;7.75;50.37;98452.66;5075759;28;20024;-74
2021/04/28 06:02:09;;;;;;;9.13;6.07;;;;;;;8.04;48.62;98450.94;5094484;28;20036;-73
2021/04/28 06:04:35;;;;;;;15.52;6.85;;;;;;;8.37;47.87;98441.94;5092278;28;20495;-75
2021/04/28 06:07:04;;;;;;;9.95;5.40;;;;;;;8.62;47.33;98448.34;5092965;28;20066;-73
2021/04/28 06:09:30;;;;;;;12.13;5.78;;;;;;;8.81;46.27;98441.81;5090756;28;20032;-74
2021/04/28 06:11:55;;;;;;;15.88;6.75;;;;;;;9.02;46.04;98442.22;5074587;28;20039;-72
2021/04/28 06:14:20;;;;;;;13.57;6.57;;;;;;;9.22;45.59;98440.91;5092476;28;20032;-72
2021/04/28 06:16:46;;;;;;;11.43;7.55;;;;;;;9.38;44.93;98439.94;5094989;28;20541;-71
2021/04/28 06:19:11;;;;;;;10.40;6.75;;;;;;;9.67;43.82;98440.59;5058471;28;20551;-73
2021/04/28 06:21:38;;;;;;;11.95;7.93;;;;;;;10.09;42.46;98434.22;5093466;28;20518;-72
2021/04/28 06:24:05;;;;;;;17.02;6.68;;;;;;;10.50;42.04;98432.31;5099490;28;20036;-73
2021/04/28 06:26:31;;;;;;;14.65;6.53;;;;;;;11.06;40.77;98426.56;5087887;28;20564;-73
2021/04/28 06:28:56;;;;;;;10.68;6.43;;;;;;;11.56;39.20;98427.22;5089043;28;20062;-73
2021/04/28 06:31:22;;;;;;;19.70;8.25;;;;;;;12.07;38.96;98420.78;5096580;28;20490;-71
2021/04/28 06:33:47;;;;;;;18.88;8.77;;;;;;;12.67;37.57;98420.41;5106709;28;20051;-72
2021/04/28 06:36:12;;;;;;;21.77;9.13;;;;;;;13.26;36.58;98413.03;5077788;28;20035;-72
2021/04/28 06:38:38;;;;;;;24.90;8.90;;;;;;;13.46;35.61;98409.63;5096849;28;20047;-73
2021/04/28 06:41:04;;;;;;;50.80;8.88;;;;;;;13.71;35.61;98416.34;5073034;28;20443;-72
2021/04/28 06:43:30;;;;;;;26.75;10.75;;;;;;;14.07;35.02;98414.19;5091067;28;20547;-71
2021/04/28 06:45:55;;;;;;;25.73;7.88;;;;;;;14.37;34.99;98413.38;5091408;28;20119;-75
2021/04/28 06:48:20;;;;;;;25.38;9.65;;;;;;;14.59;33.81;98415.03;5090908;28;20483;-73
2021/04/28 06:50:46;;;;;;;13.57;8.05;;;;;;;14.50;33.40;98413.13;5091333;28;20055;-73
2021/04/28 06:53:11;;;;;;;18.80;9.93;;;;;;;14.55;33.27;98415.41;5108565;28;20040;-72
2021/04/28 06:55:37;;;;;;;12.52;8.55;;;;;;;14.93;33.63;98419.97;5107979;28;20035;-71
2021/04/28 06:58:03;;;;;;;16.90;8.95;;;;;;;15.16;32.99;98414.41;5080654;28;20529;-71
2021/04/28 07:00:29;;;;;;;25.10;9.93;;;;;;;15.39;32.27;98420.31;5092340;28;20040;-72
2021/04/28 07:02:56;;;;;;;14.00;9.68;;;;;;;15.80;32.08;98410.38;5112076;28;20032;-73
2021/04/28 07:05:22;;;;;;;17.58;9.68;;;;;;;16.29;31.30;98400.44;5087325;28;20498;-71
2021/04/28 07:07:48;;;;;;;13.68;10.95;;;;;;;16.59;30.56;98403.81;5091135;28;20123;-72
2021/04/28 07:10:14;;;;;;;28.27;10.10;;;;;;;16.90;30.79;98404.38;5090124;28;20020;-71
2021/04/28 07:12:40;;;;;;;18.17;10.93;;;;;;;17.16;30.08;98399.16;5095071;28;20074;-72
2021/04/28 07:15:06;;;;;;;30.15;14.43;;;;;;;17.38;29.14;98395.22;5110786;28;20586;-75
2021/04/28 07:17:33;;;;;;;17.65;10.43;;;;;;;17.58;28.16;98395.88;5104739;28;20044;-74
2021/04/28 07:20:00;;;;;;;17.90;9.57;;;;;;;17.53;28.21;98395.50;5071033;28;20036;-74
2021/04/28 07:22:25;;;;;;;19.27;10.57;;;;;;;17.38;27.85;98396.03;5072063;28;20088;-67
2021/04/28 07:24:51;;;;;;;19.92;10.93;;;;;;;17.53;27.79;98391.00;5087336;28;20036;-67
2021/04/28 07:27:16;;;;;;;19.98;7.90;;;;;;;17.81;27.50;98397.06;5071474;28;20028;-66
2021/04/28 07:29:42;;;;;;;18.92;9.13;;;;;;;18.27;26.75;98398.72;5054892;28;20035;-70
2021/04/28 07:32:08;;;;;;;14.40;8.15;;;;;;;18.53;26.70;98399.47;5087017;28;20032;-65
2021/04/28 07:34:44;;;;;;;18.95;8.75;;;;;;;18.69;26.13;98396.06;5089230;28;20431;-66
2021/04/28 07:37:09;;;;;;;26.42;8.20;;;;;;;18.97;26.11;98395.84;5070028;28;20444;-69
2021/04/28 07:39:35;;;;;;;9.82;6.85;;;;;;;19.15;24.06;98390.34;5088101;28;20514;-67
2021/04/28 07:42:01;;;;;;;12.95;7.10;;;;;;;19.36;25.05;98393.38;5069956;28;20123;-66
2021/04/28 07:44:30;;;;;;;12.70;7.18;;;;;;;19.78;22.33;98391.59;5067611;28;20040;-66
2021/04/28 07:46:56;;;;;;;8.68;6.03;;;;;;;20.36;21.37;98382.44;5070801;28;20040;-66
2021/04/28 07:49:22;;;;;;;17.77;7.25;;;;;;;19.78;21.77;98386.25;5073985;28;20462;-52
2021/04/28 07:51:47;;;;;;;10.68;7.40;;;;;;;19.63;22.16;98388.72;5081957;28;20056;-53
2021/04/28 07:54:13;;;;;;;15.75;7.32;;;;;;;19.31;22.38;98382.38;5103357;28;20070;-52
2021/04/28 07:56:38;;;;;;;14.35;7.53;;;;;;;19.23;22.94;98385.88;5085382;28;20060;-50
2021/04/28 07:59:04;;;;;;;13.85;7.35;;;;;;;19.48;23.05;98381.38;5084573;28;20476;-53
2021/04/28 08:01:29;;;;;;;9.55;6.15;;;;;;;19.84;23.11;98375.72;5084459;28;20039;-50
2021/04/28 08:03:55;;;;;;;13.10;6.82;;;;;;;19.71;23.09;98378.91;5083235;28;20432;-55
2021/04/28 08:06:20;;;;;;;13.95;8.63;;;;;;;19.78;22.85;98373.69;5081061;28;20039;-52
2021/04/28 08:08:47;;;;;;;11.18;7.65;;;;;;;19.90;23.21;98369.66;5084021;28;20111;-48
2021/04/28 08:11:12;;;;;;;9.85;7.15;;;;;;;20.05;23.15;98371.66;5084224;28;20068;-51
2021/04/28 08:13:38;;;;;;;13.73;6.97;;;;;;;20.15;23.21;98369.63;5083951;28;20480;-48
2021/04/28 08:16:03;;;;;;;20.63;8.05;;;;;;;19.98;23.69;98373.34;5082908;28;20639;-51
2021/04/28 08:18:29;;;;;;;24.20;9.10;;;;;;;20.07;24.30;98370.47;5084795;28;20020;-45
2021/04/28 08:20:54;;;;;;;23.30;8.85;;;;;;;20.20;24.01;98372.63;5083963;28;20559;-48
2021/04/28 08:23:20;;;;;;;16.40;9.25;;;;;;;20.47;23.92;98365.16;5083913;28;20078;-49
2021/04/28 08:25:46;;;;;;;12.30;7.72;;;;;;;20.73;23.98;98362.25;5083772;28;20036;-51
2021/04/28 08:28:11;;;;;;;17.83;8.50;;;;;;;20.93;24.16;98360.78;5084481;28;20105;-50
2021/04/28 08:30:39;;;;;;;15.52;8.43;;;;;;;20.98;23.67;98358.41;5083439;28;20034;-45
2021/04/28 08:33:05;;;;;;;17.55;7.70;;;;;;;21.08;23.22;98358.19;5065926;28;20143;-45
2021/04/28 08:35:30;;;;;;;10.85;7.32;;;;;;;21.14;23.84;98360.16;5084374;28;20036;-46
2021/04/28 08:37:55;;;;;;;9.80;7.35;;;;;;;21.61;22.42;98356.47;5085203;28;20697;-48
2021/04/28 08:40:22;;;;;;;10.90;6.80;;;;;;;21.77;22.78;98352.78;5083489;28;20054;-51
2021/04/28 08:42:47;;;;;;;11.23;8.18;;;;;;;22.03;22.00;98356.91;5083715;28;20036;-49
2021/04/28 08:45:14;;;;;;;15.88;8.48;;;;;;;21.84;21.53;98361.78;5053837;28;20093;-54
2021/04/28 08:47:42;;;;;;;12.70;7.63;;;;;;;21.93;21.59;98354.50;5081930;28;20035;-49
2021/04/28 08:50:08;;;;;;;11.20;7.72;;;;;;;22.21;21.17;98356.56;5088547;28;20059;-74
2021/04/28 08:52:35;;;;;;;11.68;7.60;;;;;;;22.51;20.79;98350.16;5094304;28;20487;-74
2021/04/28 08:55:01;;;;;;;15.52;8.43;;;;;;;22.59;20.60;98349.19;5086605;28;20036;-72
2021/04/28 08:57:27;;;;;;;12.75;7.30;;;;;;;22.44;20.52;98351.91;5087059;28;20644;-73
2021/04/28 08:59:53;;;;;;;9.73;6.65;;;;;;;22.44;20.84;98353.78;5086045;28;20133;-73
2021/04/28 09:02:25;;;;;;;14.52;8.75;;;;;;;22.50;20.92;98345.81;5085823;28;20032;-72
2021/04/28 09:05:10;;;;;;;16.73;8.70;;;;;;;22.72;20.83;98345.88;5085162;28;20036;-72
2021/04/28 09:07:36;;;;;;;12.93;7.40;;;;;;;22.58;21.05;98344.03;5085495;28;20036;-73
2021/04/28 09:10:11;;;;;;;12.27;6.78;;;;;;;22.74;19.76;98346.50;5082729;28;20024;-75
2021/04/28 09:12:53;;;;;;;14.75;7.93;;;;;;;22.87;19.71;98335.91;5076793;28;20032;-75
2021/04/28 09:15:44;;;;;;;16.50;7.25;;;;;;;22.97;18.24;98338.28;5080086;28;20487;-76
2021/04/28 09:18:15;;;;;;;9.75;5.93;;;;;;;23.22;18.62;98337.94;5079426;28;20040;-71
2021/04/28 09:20:47;;;;;;;11.27;6.13;;;;;;;23.09;16.60;98334.09;5092643;28;20066;-75
2021/04/28 09:23:25;;;;;;;7.13;5.70;;;;;;;23.48;15.72;98330.13;5093745;28;20495;-75
2021/04/28 09:25:53;;;;;;;11.55;5.95;;;;;;;23.79;16.19;98332.44;5075660;28;20052;-73
2021/04/28 09:28:31;;;;;;;8.57;7.07;;;;;;;24.20;16.67;98328.16;5093645;28;20066;-74
2021/04/28 09:31:06;;;;;;;11.68;6.65;;;;;;;24.69;16.38;98327.19;5076315;28;20031;-74
2021/04/28 09:33:40;;;;;;;;;;;;;;;24.83;17.15;98328.03;5092089;28;20100;-75
2021/04/28 09:36:06;;;;;;;20.55;7.22;;;;;;;25.14;16.98;98319.41;5090867;28;19940;-74
2021/04/28 09:38:31;;;;;;;14.15;8.60;;;;;;;25.05;17.63;98320.63;5090227;28;20532;-74
2021/04/28 09:41:00;;;;;;;12.00;7.10;;;;;;;25.29;17.68;98316.53;5091530;28;20044;-72
2021/04/28 09:43:38;;;;;;;13.60;7.95;;;;;;;25.64;17.64;98303.66;5072581;28;20036;-72
2021/04/28 09:46:03;;;;;;;16.20;7.40;;;;;;;26.21;17.46;98306.72;5090124;28;20028;-74
2021/04/28 09:48:29;;;;;;;18.30;8.75;;;;;;;26.42;17.08;98315.59;5092193;28;20036;-74
2021/04/28 09:51:09;;;;;;;13.68;9.02;;;;;;;26.48;16.42;98302.06;5094745;28;20028;-73
2021/04/28 09:53:35;;;;;;;14.32;9.15;;;;;;;26.15;17.85;98296.75;5080627;28;20035;-77
2021/04/28 09:56:01;;;;;;;14.63;8.30;;;;;;;26.57;17.61;98299.13;5096838;28;20043;-71
2021/04/28 09:58:49;;;;;;;15.38;9.35;;;;;;;26.67;17.94;98294.09;5097348;28;20028;-73
2021/04/28 10:01:35;;;;;;;19.13;8.60;;;;;;;27.13;17.80;98291.09;5083653;28;20040;-73
2021/04/28 10:04:03;;;;;;;15.85;8.63;;;;;;;27.55;17.04;98288.72;5098543;28;20032;-74
2021/04/28 10:06:49;;;;;;;22.13;9.80;;;;;;;27.86;16.60;98287.00;5073899;28;20400;-75
2021/04/28 10:09:46;;;;;;;13.85;7.75;;;;;;;28.06;14.94;98278.69;5075132;28;20076;-72
2021/04/28 10:12:13;;;;;;;11.00;8.05;;;;;;;27.66;16.04;98270.09;5036541;28;20040;-73
2021/04/28 10:14:38;;;;;;;28.15;9.50;;;;;;;27.09;15.57;98278.22;5072193;28;20067;-72
2021/04/28 10:17:06;;;;;;;14.55;9.85;;;;;;;26.55;15.97;98270.44;5088948;28;20040;-73
2021/04/28 10:19:34;;;;;;;16.35;8.90;;;;;;;26.53;16.03;98275.25;5073949;28;20040;-72
2021/04/28 10:22:10;;;;;;;13.55;9.00;;;;;;;26.91;15.61;98265.47;5082489;28;20537;-73
2021/04/28 10:24:40;;;;;;;10.25;9.02;;;;;;;26.85;15.63;98260.91;5065020;28;21557;-72
2021/04/28 10:27:10;;;;;;;13.00;9.30;;;;;;;26.49;15.61;98263.16;5088561;28;20032;-73
2021/04/28 10:29:38;;;;;;;16.90;8.27;;;;;;;26.88;15.77;98260.50;5088555;28;20048;-72
2021/04/28 10:32:07;;;;;;;37.85;11.55;;;;;;;26.76;15.13;98258.47;5091768;28;20091;-73
2021/04/28 10:34:38;;;;;;;13.35;10.20;;;;;;;26.46;15.58;98265.44;5088685;28;20036;-74
2021/04/28 10:37:06;;;;;;;15.88;7.82;;;;;;;26.74;15.34;98249.75;5088066;28;20040;-72
2021/04/28 10:39:32;;;;;;;17.90;9.20;;;;;;;26.88;15.28;98246.97;5072940;28;20044;-72
2021/04/28 10:41:58;;;;;;;11.65;9.27;;;;;;;26.83;15.05;98241.38;5069716;28;20059;-73
2021/04/28 10:44:39;;;;;;;16.20;8.57;;;;;;;27.24;14.97;98248.19;5062334;28;20049;-73
2021/04/28 10:47:14;;;;;;;9.52;7.47;;;;;;;27.37;13.64;98237.25;5084111;28;20123;-73
2021/04/28 10:49:57;;;;;;;10.00;8.07;;;;;;;26.67;14.47;98235.44;5090244;28;20047;-73
2021/04/28 10:52:28;;;;;;;14.13;8.23;;;;;;;25.93;15.32;98236.78;5075495;28;20048;-71
2021/04/28 10:54:54;;;;;;;12.07;8.18;;;;;;;25.36;15.67;98230.22;5089172;28;21036;-71
2021/04/28 10:57:33;;;;;;;11.10;7.57;;;;;;;24.69;15.90;98238.25;5077802;28;20039;-73
2021/04/28 10:59:59;;;;;;;14.23;7.68;;;;;;;24.24;16.83;98227.06;5090014;28;20039;-72
2021/04/28 11:02:31;;;;;;;9.70;7.57;;;;;;;24.17;16.81;98220.84;5087965;28;20520;-73
2021/04/28 11:05:04;;;;;;;13.70;7.63;;;;;;;23.41;17.30;98229.72;5090045;28;20032;-71
2021/04/28 11:07:45;;;;;;;17.13;9.13;;;;;;;22.88;17.77;98222.00;5089908;28;20056;-74
2021/04/28 11:10:35;;;;;;;14.02;8.30;;;;;;;22.74;18.11;98201.41;5087795;28;20543;-73
2021/04/28 11:13:07;;;;;;;12.43;7.97;;;;;;;22.51;18.09;98205.09;5087704;28;20098;-73
2021/04/28 11:15:53;;;;;;;16.65;8.27;;;;;;;22.14;18.84;98203.44;5088159;28;20109;-72
2021/04/28 11:18:38;;;;;;;10.70;8.13;;;;;;;21.86;19.17;98201.44;5088154;28;20040;-73
2021/04/28 11:21:19;;;;;;;12.50;7.85;;;;;;;22.05;19.51;98192.00;5083255;28;20036;-73
2021/04/28 11:24:06;;;;;;;11.60;8.10;;;;;;;21.85;19.85;98188.22;5089227;28;20032;-73
2021/04/28 11:26:34;;;;;;;11.15;7.85;;;;;;;21.86;20.02;98184.53;5094784;28;20042;-72
2021/04/28 11:29:01;;;;;;;21.58;8.25;;;;;;;21.67;19.94;98185.91;5070998;28;20040;-69
2021/04/28 11:31:57;;;;;;;9.95;7.75;;;;;;;21.64;19.15;98179.06;5098230;28;20513;-74
2021/04/28 11:34:32;;;;;;;;;;;;;;;21.52;19.40;98182.41;5083819;28;20495;-72
2021/04/28 11:37:04;;;;;;;12.85;6.35;;;;;;;21.62;19.14;98178.44;5094178;28;20459;-73